Anita, Pennsylvania
Current Conditions -  °F | °C
As of 7:32 AM on Monday 26 Jan 2015 (Local Time) from KDUJ Reporting Station
Light Snow Light Snow  
Wind Chill:   Ceiling: 2800
Heat Index: 17°   Visibility: 2mi
Dew Point: 13°   Wind: 14mph
Humidity: 84%   Direction: 90°E
Pressure: 29.72"   Gusts: NA
Location:  41°N, 78.96°W
Report Text: KDUJ 261232Z AUTO 09012KT 2SM -SN BR OVC028 M08/M11 A2972 RMK AO2 SNB25 P0000 T10831106
Loading
Personal Weather Stations






























Interactive Weather Map New forecast layout! Learn more

10-Day Weather Forecast

Advertisements
Track Severe Weather on mobile